Terminal Aerodrome Forecast
Issued by NWS

Home | Current Version | Previous Version | Text Only | Print | Product List | Glossary On
Versions: 1 2 3 4 5 6 7 8 9 10 11 12 13 14 15 16
000
FTUS45 KREV 201210 RRA
TAFCXP
TAF
KCXP 201210Z 2012/2112 08007KT P6SM VCSH SCT030 BKN050
     FM201400 14007KT 1SM -SN BR BKN010 OVC018
     FM201800 16010G20KT 5SM -SHSN SCT012 BKN025
     FM210900 24009KT P6SM VCSH FEW030 BKN060=

USA.gov is the U.S. government's official web portal to all federal, state and local government web resources and services.